createdAt,value
2022-10-10T00:00:06.454Z,87.89
2022-10-10T00:02:33.177Z,88.69
2022-10-10T00:04:59.709Z,88.74
2022-10-10T00:07:26.324Z,88.23
2022-10-10T00:09:52.876Z,89.19
2022-10-10T00:12:19.457Z,88.89
2022-10-10T00:14:45.998Z,88.96
2022-10-10T00:17:12.562Z,88.83
2022-10-10T00:19:39.098Z,88.75
2022-10-10T00:22:05.661Z,88.19
2022-10-10T00:24:32.184Z,88.32
2022-10-10T00:26:58.785Z,88.11
2022-10-10T00:29:25.538Z,88.73
2022-10-10T00:31:52.128Z,88.58
2022-10-10T00:34:18.670Z,88.22
2022-10-10T00:36:45.201Z,88.94
2022-10-10T00:39:11.829Z,89.32
2022-10-10T00:41:38.372Z,88.45
2022-10-10T00:44:15.479Z,88.71
2022-10-10T00:46:42.502Z,88.58
2022-10-10T00:49:14.614Z,89.21
2022-10-10T00:51:42.140Z,89.31
2022-10-10T00:54:11.612Z,89.16
2022-10-10T00:56:44.059Z,89.81
2022-10-10T00:59:12.482Z,89.94
2022-10-10T01:01:41.142Z,89.55
2022-10-10T01:04:45.247Z,89.88
2022-10-10T01:07:24.389Z,89.27
2022-10-10T01:09:54.406Z,89.06
2022-10-10T01:12:33.338Z,89.28
2022-10-10T01:15:03.594Z,89.33
2022-10-10T01:17:34.893Z,89.95
2022-10-10T01:20:18.059Z,89.93
2022-10-10T01:23:17.275Z,90.20
2022-10-10T01:25:52.820Z,89.67
2022-10-10T01:28:44.380Z,89.21
2022-10-10T01:31:13.825Z,89.72
2022-10-10T01:33:59.463Z,90.33
2022-10-10T01:36:53.086Z,90.20
2022-10-10T01:39:29.164Z,90.68
2022-10-10T01:42:06.791Z,90.51
2022-10-10T01:44:33.357Z,90.25
2022-10-10T01:46:59.939Z,90.65
2022-10-10T01:49:31.421Z,90.62
2022-10-10T01:52:14.277Z,89.70
2022-10-10T01:54:46.929Z,90.50
2022-10-10T01:57:40.521Z,90.97
2022-10-10T02:00:09.668Z,91.12
2022-10-10T02:03:00.362Z,90.19
2022-10-10T02:05:53.118Z,90.40
2022-10-10T02:08:32.739Z,90.49
2022-10-10T02:11:00.543Z,91.86
2022-10-10T02:13:44.683Z,91.14
2022-10-10T02:16:18.588Z,90.91
2022-10-10T02:18:47.074Z,90.75
2022-10-10T02:21:15.652Z,90.36
2022-10-10T02:23:45.860Z,90.70
2022-10-10T02:26:15.472Z,90.87
2022-10-10T02:28:45.982Z,91.04
2022-10-10T02:31:18.335Z,92.04
2022-10-10T02:33:50.316Z,91.49
2022-10-10T02:36:18.806Z,91.21
2022-10-10T02:38:47.388Z,91.55
2022-10-10T02:41:18.246Z,90.81
2022-10-10T02:43:45.028Z,90.87
2022-10-10T02:46:13.939Z,91.15
2022-10-10T02:48:41.641Z,91.25
2022-10-10T02:51:09.628Z,90.89
2022-10-10T02:53:37.783Z,91.68
2022-10-10T02:56:05.133Z,90.40
2022-10-10T02:58:31.729Z,91.47
2022-10-10T03:00:58.267Z,90.89
2022-10-10T03:03:25.747Z,91.30
2022-10-10T03:05:52.385Z,90.86
2022-10-10T03:08:18.918Z,91.22
2022-10-10T03:11:00.164Z,91.19
2022-10-10T03:13:27.077Z,91.67
2022-10-10T03:15:53.791Z,91.43
2022-10-10T03:18:20.409Z,91.65
2022-10-10T03:20:50.955Z,91.15
2022-10-10T03:23:17.555Z,90.90
2022-10-10T03:25:44.300Z,90.74
2022-10-10T03:28:11.769Z,90.86
2022-10-10T03:30:39.226Z,91.39
2022-10-10T03:33:06.065Z,90.89
2022-10-10T03:35:32.767Z,91.54
2022-10-10T03:37:59.671Z,91.20
2022-10-10T03:40:27.501Z,91.12
2022-10-10T03:42:54.362Z,91.48
2022-10-10T03:45:21.137Z,91.51
2022-10-10T03:47:48.838Z,91.52
2022-10-10T03:50:15.428Z,91.98
2022-10-10T03:52:42.111Z,91.88
2022-10-10T03:55:08.867Z,91.49
2022-10-10T03:57:35.430Z,91.97
2022-10-10T04:00:01.939Z,91.66
2022-10-10T04:02:31.433Z,91.98
2022-10-10T04:04:57.980Z,91.81
2022-10-10T04:07:24.720Z,92.05
2022-10-10T04:09:51.276Z,92.35
2022-10-10T04:12:17.885Z,92.42
2022-10-10T04:14:44.416Z,92.53
2022-10-10T04:17:10.948Z,92.77
2022-10-10T04:19:37.593Z,92.50
2022-10-10T04:22:07.831Z,92.64
2022-10-10T04:24:36.866Z,92.25
2022-10-10T04:27:03.654Z,92.47
2022-10-10T04:29:30.182Z,91.72
2022-10-10T04:31:56.933Z,91.59
2022-10-10T04:34:23.491Z,92.45
2022-10-10T04:36:50.101Z,92.98
2022-10-10T04:39:16.643Z,93.11
2022-10-10T04:41:43.219Z,93.05
2022-10-10T04:44:09.732Z,92.87
2022-10-10T04:46:36.230Z,92.68
2022-10-10T04:49:03.081Z,92.68
2022-10-10T04:51:29.601Z,92.65
2022-10-10T04:53:56.134Z,92.98
2022-10-10T04:56:22.727Z,92.57
2022-10-10T04:58:49.388Z,93.03
2022-10-10T05:01:15.995Z,92.57
2022-10-10T05:03:42.736Z,92.99
2022-10-10T05:06:09.274Z,93.47
2022-10-10T05:08:35.913Z,93.40
2022-10-10T05:11:02.523Z,93.68
2022-10-10T05:13:29.034Z,93.61
2022-10-10T05:15:55.560Z,93.62
2022-10-10T05:18:22.210Z,93.77
2022-10-10T05:20:48.960Z,93.29
2022-10-10T05:23:16.416Z,93.05
2022-10-10T05:25:50.826Z,93.96
2022-10-10T05:28:18.081Z,94.37
2022-10-10T05:30:44.706Z,94.73
2022-10-10T05:33:11.435Z,94.54
2022-10-10T05:35:37.997Z,93.85
2022-10-10T05:38:05.214Z,94.22
2022-10-10T05:40:32.009Z,94.29
2022-10-10T05:42:58.558Z,94.46
2022-10-10T05:45:25.085Z,94.97
2022-10-10T05:47:51.616Z,94.34
2022-10-10T05:50:29.777Z,94.34
2022-10-10T05:52:56.359Z,93.95
2022-10-10T05:55:22.878Z,94.54
2022-10-10T05:57:49.373Z,94.32
2022-10-10T06:00:16.051Z,94.20
2022-10-10T06:02:42.595Z,94.38
2022-10-10T06:05:09.555Z,94.08
2022-10-10T06:07:52.302Z,94.69
2022-10-10T06:10:22.620Z,94.52
2022-10-10T06:12:49.375Z,94.38
2022-10-10T06:15:16.245Z,94.66
2022-10-10T06:17:42.778Z,95.60
2022-10-10T06:20:09.895Z,95.68
2022-10-10T06:22:36.733Z,95.31
2022-10-10T06:25:03.700Z,95.72
2022-10-10T06:27:30.213Z,95.87
2022-10-10T06:29:56.711Z,95.43
2022-10-10T06:32:23.266Z,96.65
2022-10-10T06:34:49.712Z,97.40
2022-10-10T06:37:16.301Z,97.06
2022-10-10T06:39:42.883Z,97.85
2022-10-10T06:42:09.438Z,97.81
2022-10-10T06:44:36.025Z,98.07
2022-10-10T06:47:02.512Z,97.15
2022-10-10T06:49:29.634Z,97.83
2022-10-10T06:51:56.187Z,98.64
2022-10-10T06:54:22.782Z,98.56
2022-10-10T06:56:49.571Z,97.54
2022-10-10T06:59:16.143Z,97.97
2022-10-10T07:01:42.922Z,97.52
2022-10-10T07:04:11.543Z,96.84
2022-10-10T07:06:38.131Z,97.28
2022-10-10T07:09:05.344Z,96.46
2022-10-10T07:11:32.338Z,97.11
2022-10-10T07:13:58.916Z,96.53
2022-10-10T07:16:25.973Z,97.17
2022-10-10T07:18:52.584Z,96.62
2022-10-10T07:21:19.166Z,96.12
2022-10-10T07:23:45.742Z,96.65
2022-10-10T07:26:15.041Z,96.36
2022-10-10T07:28:41.726Z,96.00
2022-10-10T07:31:10.934Z,95.69
2022-10-10T07:33:49.879Z,96.16
2022-10-10T07:36:18.329Z,96.53
2022-10-10T07:38:44.865Z,96.62
2022-10-10T07:41:14.547Z,96.27
2022-10-10T07:43:41.462Z,95.53
2022-10-10T07:46:17.963Z,95.92
2022-10-10T07:48:45.025Z,95.78
2022-10-10T07:51:12.634Z,94.73
2022-10-10T07:53:40.715Z,95.10
2022-10-10T07:56:08.770Z,94.08
2022-10-10T07:58:35.795Z,94.03
2022-10-10T08:01:08.384Z,93.30
2022-10-10T08:03:35.975Z,92.22
2022-10-10T08:06:04.631Z,92.51
2022-10-10T08:08:34.124Z,92.47
2022-10-10T08:11:01.602Z,91.47
2022-10-10T08:13:28.202Z,92.09
2022-10-10T08:15:54.839Z,90.84
2022-10-10T08:18:21.398Z,90.87
2022-10-10T08:20:47.970Z,89.94
2022-10-10T08:23:14.533Z,90.25
2022-10-10T08:25:41.113Z,90.04
2022-10-10T08:28:07.657Z,88.81
2022-10-10T08:30:34.263Z,89.31
2022-10-10T08:33:01.515Z,88.20
2022-10-10T08:35:28.171Z,87.59
2022-10-10T08:37:55.115Z,87.40
2022-10-10T08:40:22.292Z,88.06
2022-10-10T08:42:53.192Z,86.51
2022-10-10T08:45:24.594Z,87.54
2022-10-10T08:47:57.289Z,86.94
2022-10-10T08:50:29.269Z,87.63
2022-10-10T08:52:58.174Z,87.92
2022-10-10T08:55:33.563Z,87.58
2022-10-10T08:58:04.736Z,88.28
2022-10-10T09:00:36.994Z,87.63
2022-10-10T09:03:12.915Z,86.62
2022-10-10T09:05:42.458Z,85.96
2022-10-10T09:08:23.192Z,86.44
2022-10-10T09:11:00.571Z,85.95
2022-10-10T09:13:57.771Z,86.60
2022-10-10T09:16:40.523Z,86.15
2022-10-10T09:19:24.572Z,85.25
2022-10-10T09:21:57.155Z,83.94
2022-10-10T09:24:42.542Z,84.28
2022-10-10T09:27:16.426Z,83.45
2022-10-10T09:30:03.239Z,81.88
2022-10-10T09:32:45.239Z,81.22
2022-10-10T09:35:22.779Z,81.60
2022-10-10T09:37:53.586Z,81.03
2022-10-10T09:40:38.474Z,81.11
2022-10-10T09:43:18.522Z,79.59
2022-10-10T09:45:51.828Z,78.86
2022-10-10T09:48:19.402Z,77.78
2022-10-10T09:50:45.885Z,77.45
2022-10-10T09:53:17.031Z,77.32
2022-10-10T09:55:46.196Z,77.15
2022-10-10T09:58:20.563Z,76.54
2022-10-10T10:00:47.504Z,76.66
2022-10-10T10:03:17.570Z,75.97
2022-10-10T10:06:06.033Z,75.83
2022-10-10T10:08:35.406Z,74.11
2022-10-10T10:11:04.141Z,73.99
2022-10-10T10:13:36.482Z,72.98
2022-10-10T10:16:06.159Z,73.93
2022-10-10T10:18:39.547Z,71.71
2022-10-10T10:21:23.578Z,71.54
2022-10-10T10:23:58.129Z,70.85
2022-10-10T10:26:43.753Z,70.81
2022-10-10T10:29:28.917Z,72.18
2022-10-10T10:32:20.454Z,69.34
2022-10-10T10:35:18.262Z,70.10
2022-10-10T10:38:40.650Z,68.98
2022-10-10T10:41:25.885Z,68.68
2022-10-10T10:44:13.805Z,67.96
2022-10-10T10:47:07.105Z,66.88
2022-10-10T10:49:43.625Z,65.81
2022-10-10T10:52:18.923Z,64.89
2022-10-10T10:55:12.929Z,64.60
2022-10-10T10:58:16.358Z,63.73
2022-10-10T11:01:20.241Z,62.89
2022-10-10T11:05:21.053Z,63.44
2022-10-10T11:07:17.336Z,61.25
2022-10-10T11:10:02.750Z,61.48
2022-10-10T11:13:06.956Z,62.46
2022-10-10T11:18:46.740Z,61.45
2022-10-10T11:21:23.374Z,62.13
2022-10-10T11:23:57.651Z,60.38
2022-10-10T11:26:31.997Z,59.71
2022-10-10T11:29:04.807Z,58.96
2022-10-10T11:31:41.029Z,59.10
2022-10-10T11:34:18.659Z,59.02
2022-10-10T11:36:46.918Z,59.78
2022-10-10T11:39:50.123Z,57.45
2022-10-10T11:42:24.924Z,57.53
2022-10-10T11:45:00.613Z,57.09
2022-10-10T11:47:52.324Z,58.62
2022-10-10T11:50:26.489Z,56.81
2022-10-10T11:53:05.341Z,58.20
2022-10-10T11:55:41.479Z,55.26
2022-10-10T11:58:10.680Z,53.95
2022-10-10T12:00:48.633Z,53.10
2022-10-10T12:03:15.287Z,51.84
2022-10-10T12:05:50.840Z,52.05
2022-10-10T12:08:18.143Z,52.05
2022-10-10T12:10:47.984Z,52.40
2022-10-10T12:13:17.533Z,51.56
2022-10-10T12:15:49.904Z,51.76
2022-10-10T12:18:38.238Z,52.89
2022-10-10T12:21:08.399Z,54.13
2022-10-10T12:23:35.533Z,52.64
2022-10-10T12:26:02.711Z,54.91
2022-10-10T12:28:57.003Z,52.99
2022-10-10T12:31:41.506Z,55.01
2022-10-10T12:34:36.097Z,54.23
2022-10-10T12:37:22.111Z,53.95
2022-10-10T12:40:15.098Z,55.19
2022-10-10T12:42:47.449Z,54.83
2022-10-10T12:45:29.295Z,55.16
2022-10-10T12:48:05.379Z,54.94
2022-10-10T12:50:41.764Z,55.71
2022-10-10T12:53:21.979Z,55.01
2022-10-10T12:55:52.112Z,54.96
2022-10-10T12:58:54.200Z,54.48
2022-10-10T13:01:28.301Z,54.82
2022-10-10T13:03:56.218Z,53.22
2022-10-10T13:06:59.899Z,52.76
2022-10-10T13:09:34.898Z,51.53
2022-10-10T13:12:05.610Z,51.12
2022-10-10T13:14:45.340Z,52.69
2022-10-10T13:20:00.281Z,51.54
2022-10-10T13:22:29.816Z,51.97
2022-10-10T13:24:57.782Z,51.39
2022-10-10T13:27:28.365Z,50.61
2022-10-10T13:29:55.825Z,51.33
2022-10-10T13:32:25.753Z,49.29
2022-10-10T13:34:56.322Z,49.73
2022-10-10T13:37:23.758Z,49.33
2022-10-10T13:39:52.360Z,50.16
2022-10-10T13:42:35.724Z,50.75
2022-10-10T13:45:26.594Z,50.69
2022-10-10T13:48:02.930Z,51.48
2022-10-10T13:51:01.782Z,50.73
2022-10-10T13:53:28.933Z,50.74
2022-10-10T13:55:58.954Z,50.51
2022-10-10T13:58:27.674Z,50.49
2022-10-10T14:00:59.552Z,50.57
2022-10-10T14:03:27.494Z,50.24
2022-10-10T14:05:54.293Z,48.88
2022-10-10T14:08:26.121Z,49.34
2022-10-10T14:11:02.163Z,49.83
2022-10-10T14:13:31.019Z,49.12
2022-10-10T14:16:12.986Z,49.77
2022-10-10T14:18:39.516Z,49.62
2022-10-10T14:21:08.240Z,49.96
2022-10-10T14:23:35.397Z,50.08
2022-10-10T14:26:02.189Z,49.99
2022-10-10T14:28:31.244Z,49.87
2022-10-10T14:30:58.114Z,51.07
2022-10-10T14:33:26.070Z,50.48
2022-10-10T14:35:54.497Z,51.04
2022-10-10T14:38:21.117Z,51.14
2022-10-10T14:40:50.039Z,51.58
2022-10-10T14:43:17.491Z,51.33
2022-10-10T14:45:45.039Z,51.39
2022-10-10T14:48:12.188Z,51.69
2022-10-10T14:50:46.062Z,52.00
2022-10-10T14:53:13.914Z,52.72
2022-10-10T14:55:44.082Z,53.11
2022-10-10T14:58:20.150Z,54.12
2022-10-10T15:00:47.710Z,54.24
2022-10-10T15:03:14.775Z,54.17
2022-10-10T15:05:42.024Z,54.69
2022-10-10T15:08:08.603Z,55.33
2022-10-10T15:10:35.575Z,55.50
2022-10-10T15:13:03.035Z,55.38
2022-10-10T15:15:29.666Z,55.07
2022-10-10T15:17:59.605Z,55.67
2022-10-10T15:20:30.918Z,56.35
2022-10-10T15:23:04.305Z,56.08
2022-10-10T15:25:33.938Z,56.88
2022-10-10T15:28:02.589Z,57.59
2022-10-10T15:30:29.372Z,57.54
2022-10-10T15:32:55.973Z,57.80
2022-10-10T15:35:24.352Z,58.34
2022-10-10T15:37:51.125Z,58.30
2022-10-10T15:40:23.231Z,59.27
2022-10-10T15:42:50.613Z,58.82
2022-10-10T15:45:37.338Z,59.89
2022-10-10T15:48:05.492Z,59.79
2022-10-10T15:50:34.309Z,59.91
2022-10-10T15:53:00.838Z,61.30
2022-10-10T15:55:27.424Z,64.70
2022-10-10T15:57:54.025Z,65.52
2022-10-10T16:00:20.674Z,65.45
2022-10-10T16:02:47.216Z,65.97
2022-10-10T16:05:13.781Z,66.55
2022-10-10T16:07:46.997Z,67.34
2022-10-10T16:10:14.812Z,66.77
2022-10-10T16:12:41.414Z,66.65
2022-10-10T16:15:08.482Z,68.09
2022-10-10T16:17:35.047Z,68.15
2022-10-10T16:20:02.131Z,69.58
2022-10-10T16:22:28.739Z,70.41
2022-10-10T16:27:42.694Z,77.06
2022-10-10T16:30:09.806Z,81.03
2022-10-10T16:32:41.731Z,83.49
2022-10-10T16:35:10.039Z,85.83
2022-10-10T16:37:36.610Z,87.81
2022-10-10T16:40:03.374Z,89.00
2022-10-10T16:42:30.047Z,91.04
2022-10-10T16:44:56.763Z,92.69
2022-10-10T16:47:23.360Z,93.14
2022-10-10T16:49:49.890Z,95.34
2022-10-10T16:52:16.445Z,97.33
2022-10-10T16:54:43.015Z,97.19
2022-10-10T16:57:09.573Z,97.81
2022-10-10T16:59:36.269Z,97.47
2022-10-10T17:02:03.044Z,99.32
2022-10-10T17:04:29.593Z,100.00
2022-10-10T17:06:56.131Z,100.00
2022-10-10T17:09:23.820Z,100.00
2022-10-10T17:11:51.478Z,100.00
2022-10-10T17:14:18.795Z,100.00
2022-10-10T17:17:10.630Z,100.00
2022-10-10T17:19:32.554Z,100.00
2022-10-10T17:21:59.646Z,100.00
2022-10-10T17:24:26.386Z,100.00
2022-10-10T17:26:52.978Z,100.00
2022-10-10T17:29:19.714Z,100.00
2022-10-10T17:31:46.296Z,100.00
2022-10-10T17:34:13.090Z,100.00
2022-10-10T17:36:39.699Z,100.00
2022-10-10T17:39:07.576Z,100.00
2022-10-10T17:41:34.524Z,100.00
2022-10-10T17:44:01.153Z,100.00
2022-10-10T17:46:34.810Z,100.00
2022-10-10T17:49:07.015Z,100.00
2022-10-10T17:51:35.256Z,100.00
2022-10-10T17:54:03.026Z,100.00
2022-10-10T17:56:29.911Z,100.00
2022-10-10T17:58:56.637Z,100.00
2022-10-10T18:01:23.474Z,100.00
2022-10-10T18:03:51.218Z,100.00
2022-10-10T18:06:21.195Z,100.00
2022-10-10T18:08:52.055Z,99.44
2022-10-10T18:11:21.798Z,100.00
2022-10-10T18:13:48.488Z,98.13
2022-10-10T18:16:18.775Z,97.09
2022-10-10T18:18:51.005Z,97.33
2022-10-10T18:21:20.026Z,97.58
2022-10-10T18:23:46.712Z,98.33
2022-10-10T18:26:16.499Z,97.85
2022-10-10T18:28:44.067Z,96.99
2022-10-10T18:31:20.003Z,97.40
2022-10-10T18:33:46.855Z,95.89
2022-10-10T18:36:15.814Z,96.80
2022-10-10T18:38:42.473Z,95.51
2022-10-10T18:41:15.022Z,96.16
2022-10-10T18:43:44.527Z,96.20
2022-10-10T18:46:14.445Z,95.59
2022-10-10T18:48:42.234Z,96.19
2022-10-10T18:51:12.705Z,95.94
2022-10-10T18:53:41.486Z,94.90
2022-10-10T18:56:08.788Z,94.81
2022-10-10T18:58:36.323Z,93.50
2022-10-10T19:01:06.969Z,93.53
2022-10-10T19:03:34.882Z,94.01
2022-10-10T19:06:03.235Z,93.95
2022-10-10T19:08:31.780Z,96.12
2022-10-10T19:10:58.619Z,96.95
2022-10-10T19:13:25.289Z,97.19
2022-10-10T19:15:52.285Z,97.64
2022-10-10T19:18:20.037Z,97.05
2022-10-10T19:20:46.762Z,96.58
2022-10-10T19:23:14.930Z,95.61
2022-10-10T19:25:48.288Z,96.45
2022-10-10T19:28:14.963Z,95.09
2022-10-10T19:30:43.042Z,94.37
2022-10-10T19:33:09.721Z,94.07
2022-10-10T19:35:42.494Z,94.26
2022-10-10T19:38:10.297Z,95.56
2022-10-10T19:40:44.960Z,95.39
2022-10-10T19:43:11.792Z,95.58
2022-10-10T19:45:44.518Z,96.31
2022-10-10T19:48:11.942Z,95.25
2022-10-10T19:50:43.665Z,95.48
2022-10-10T19:53:14.556Z,95.89
2022-10-10T19:55:42.721Z,95.71
2022-10-10T19:58:09.994Z,95.59
2022-10-10T20:00:37.689Z,94.38
2022-10-10T20:03:04.764Z,93.68
2022-10-10T20:05:31.467Z,93.43
2022-10-10T20:07:57.997Z,93.52
2022-10-10T20:10:24.585Z,93.63
2022-10-10T20:12:51.434Z,94.07
2022-10-10T20:15:18.040Z,95.31
2022-10-10T20:17:44.797Z,94.90
2022-10-10T20:20:11.920Z,94.70
2022-10-10T20:22:38.673Z,94.73
2022-10-10T20:25:06.311Z,93.59
2022-10-10T20:27:34.578Z,93.76
2022-10-10T20:30:01.196Z,93.44
2022-10-10T20:32:27.859Z,93.19
2022-10-10T20:34:54.899Z,94.20
2022-10-10T20:37:21.492Z,94.84
2022-10-10T20:39:48.043Z,94.98
2022-10-10T20:42:14.756Z,96.23
2022-10-10T20:44:41.650Z,96.87
2022-10-10T20:47:08.281Z,97.56
2022-10-10T20:49:34.954Z,97.52
2022-10-10T20:52:01.469Z,96.85
2022-10-10T20:54:28.112Z,96.95
2022-10-10T20:56:54.626Z,96.93
2022-10-10T20:59:22.417Z,97.70
2022-10-10T21:01:48.964Z,98.81
2022-10-10T21:04:15.715Z,98.57
2022-10-10T21:06:42.838Z,98.44
2022-10-10T21:09:11.864Z,98.23
2022-10-10T21:11:39.704Z,98.35
2022-10-10T21:14:06.841Z,98.67
2022-10-10T21:16:39.142Z,97.65
2022-10-10T21:19:09.138Z,97.72
2022-10-10T21:21:36.549Z,97.86
2022-10-10T21:24:05.627Z,98.78
2022-10-10T21:26:32.546Z,98.29
2022-10-10T21:29:00.766Z,98.17
2022-10-10T21:31:32.551Z,98.20
2022-10-10T21:34:02.107Z,98.15
2022-10-10T21:36:29.670Z,97.88
2022-10-10T21:38:56.901Z,98.36
2022-10-10T21:41:23.770Z,98.29
2022-10-10T21:43:54.611Z,98.20
2022-10-10T21:46:29.753Z,99.17
2022-10-10T21:48:58.132Z,99.43
2022-10-10T21:51:25.682Z,99.45
2022-10-10T21:53:54.631Z,99.30
2022-10-10T21:56:21.263Z,99.28
2022-10-10T21:58:47.853Z,99.18
2022-10-10T22:01:19.952Z,98.85
2022-10-10T22:03:48.929Z,99.27
2022-10-10T22:06:18.355Z,98.78
2022-10-10T22:08:46.716Z,99.06
2022-10-10T22:11:16.118Z,98.63
2022-10-10T22:13:43.508Z,98.72
2022-10-10T22:16:10.844Z,98.96
2022-10-10T22:18:38.867Z,98.47
2022-10-10T22:21:07.674Z,98.32
2022-10-10T22:23:34.378Z,98.81
2022-10-10T22:26:01.024Z,99.04
2022-10-10T22:28:28.150Z,100.00
2022-10-10T22:30:54.856Z,100.00
2022-10-10T22:33:21.520Z,99.09
2022-10-10T22:35:48.075Z,99.06
2022-10-10T22:38:14.678Z,99.04
2022-10-10T22:40:41.222Z,98.82
2022-10-10T22:43:07.787Z,99.21
2022-10-10T22:45:34.408Z,98.74
2022-10-10T22:48:01.018Z,99.27
2022-10-10T22:50:27.637Z,99.42
2022-10-10T22:52:54.186Z,99.28
2022-10-10T22:55:20.750Z,99.61
2022-10-10T22:57:47.387Z,99.47
2022-10-10T23:00:14.820Z,100.00
2022-10-10T23:02:41.417Z,100.00
2022-10-10T23:05:08.518Z,99.40
2022-10-10T23:07:35.574Z,99.39
2022-10-10T23:10:02.260Z,98.96
2022-10-10T23:12:28.802Z,98.72
2022-10-10T23:14:55.396Z,98.66
2022-10-10T23:17:22.041Z,98.32
2022-10-10T23:19:48.693Z,98.05
2022-10-10T23:22:15.177Z,98.36
2022-10-10T23:24:41.817Z,97.72
2022-10-10T23:27:08.378Z,97.15
2022-10-10T23:29:34.955Z,98.62
2022-10-10T23:32:01.521Z,98.76
2022-10-10T23:34:28.111Z,98.01
2022-10-10T23:36:54.755Z,97.92
2022-10-10T23:39:21.299Z,97.66
2022-10-10T23:41:47.930Z,98.37
2022-10-10T23:44:14.497Z,98.13
2022-10-10T23:46:41.047Z,100.00
2022-10-10T23:49:07.576Z,100.00
2022-10-10T23:51:34.117Z,99.96
2022-10-10T23:54:00.666Z,99.21
2022-10-10T23:56:27.214Z,98.17
2022-10-10T23:58:53.896Z,98.29
